Time;durP1;ratioP1;P1;durP2;ratioP2;P2;SDS_P1;SDS_P2;PMS_P1;PMS_P2;Temp;Humidity;BMP_temperature;BMP_pressure;BME280_temperature;BME280_humidity;BME280_pressure;Samples;Min_cycle;Max_cycle;Signal;HPM_P1;HPM_P2
2022/12/04 00:00:33;;;;;;;14.10;10.93;;;;;;;28.60;59.86;100858.09;5086344;27;66242;-35
2022/12/04 00:03:05;;;;;;;15.68;11.85;;;;;;;28.61;60.87;100857.06;5082784;27;70745;-34
2022/12/04 00:05:36;;;;;;;18.85;12.40;;;;;;;28.58;61.65;100844.81;5085105;27;65938;-36
2022/12/04 00:08:08;;;;;;;15.00;12.03;;;;;;;28.70;62.07;100869.34;5079285;27;70265;-35
2022/12/04 00:10:43;;;;;;;19.02;14.13;;;;;;;28.74;62.60;100867.88;5091021;27;65330;-34
2022/12/04 00:13:14;;;;;;;20.20;14.27;;;;;;;28.64;63.10;100851.25;5083488;27;70257;-38
2022/12/04 00:15:46;;;;;;;18.67;14.15;;;;;;;28.71;63.52;100865.59;5082730;27;65378;-37
2022/12/04 00:18:18;;;;;;;31.38;14.10;;;;;;;28.85;63.13;100885.34;5085422;27;69815;-36
2022/12/04 00:20:49;;;;;;;24.53;15.30;;;;;;;28.86;64.50;100885.13;5083802;27;66047;-34
2022/12/04 00:23:20;;;;;;;23.60;16.20;;;;;;;28.90;64.57;100886.38;5093722;27;69177;-38
2022/12/04 00:25:52;;;;;;;30.80;16.23;;;;;;;28.92;64.76;100884.31;5083482;27;65521;-35
2022/12/04 00:28:23;;;;;;;21.90;15.85;;;;;;;28.94;65.27;100887.59;5084572;27;70883;-35
2022/12/04 00:30:55;;;;;;;27.50;15.53;;;;;;;28.96;64.09;100896.34;5080317;27;65325;-33
2022/12/04 00:33:26;;;;;;;21.77;13.50;;;;;;;28.91;66.08;100889.91;5087177;27;69237;-34
2022/12/04 00:35:59;;;;;;;18.07;13.60;;;;;;;28.14;62.94;100759.00;5082429;27;66385;-33
2022/12/04 00:38:33;;;;;;;16.92;12.15;;;;;;;29.00;61.98;100909.44;5078425;27;43199;-33
2022/12/04 00:41:05;;;;;;;17.65;12.45;;;;;;;29.00;62.31;100915.66;5082816;27;65322;-33
2022/12/04 00:43:36;;;;;;;18.65;12.57;;;;;;;29.02;62.64;100918.16;5086449;27;70341;-34
2022/12/04 00:46:08;;;;;;;12.33;11.13;;;;;;;28.94;61.98;100914.59;5087458;27;66048;-35
2022/12/04 00:48:39;;;;;;;;;;;;;;;28.68;65.54;100934.31;5080785;27;69542;-35
2022/12/04 00:51:13;;;;;;;12.48;11.38;;;;;;;28.55;62.20;100856.00;5090331;27;66728;-33
2022/12/04 00:53:44;;;;;;;14.52;11.13;;;;;;;29.11;62.95;100941.25;5088106;27;69402;-34
2022/12/04 00:56:22;;;;;;;12.73;11.40;;;;;;;28.63;62.36;100863.09;5088919;27;66301;-36
2022/12/04 00:58:58;;;;;;;12.05;10.95;;;;;;;29.16;62.89;100949.56;5083229;27;70391;-35
2022/12/04 01:01:30;;;;;;;11.85;10.60;;;;;;;29.18;63.22;100958.31;5084875;27;65094;-35
2022/12/04 01:04:01;;;;;;;;;;;;;;;28.81;65.40;100960.50;5086749;27;70130;-34
2022/12/04 01:06:34;;;;;;;11.27;10.10;;;;;;;29.03;62.94;100938.72;5082462;27;65672;-34
2022/12/04 01:09:06;;;;;;;11.73;10.73;;;;;;;29.19;63.62;100965.34;5088096;27;70006;-35
2022/12/04 01:11:37;;;;;;;;;;;;;;;28.84;65.46;100962.81;5081241;27;66775;-35
2022/12/04 01:14:08;;;;;;;10.75;9.68;;;;;;;29.08;63.30;100941.66;5078973;27;70151;-37
2022/12/04 01:16:40;;;;;;;10.20;9.40;;;;;;;29.24;63.27;100979.09;5081416;27;65372;-35
2022/12/04 01:19:12;;;;;;;15.48;11.68;;;;;;;29.19;65.28;100965.34;5088083;27;69997;-34
2022/12/04 01:21:43;;;;;;;17.52;14.80;;;;;;;29.29;63.87;100982.00;5089203;27;66411;-34
2022/12/04 01:24:15;;;;;;;17.53;14.40;;;;;;;29.22;63.55;100973.03;5085577;27;69228;-37
2022/12/04 01:26:46;;;;;;;19.10;13.70;;;;;;;29.23;63.54;100987.41;5079099;27;66211;-34
2022/12/04 01:29:18;;;;;;;18.88;12.25;;;;;;;29.29;63.38;100998.22;5078770;27;69461;-36
2022/12/04 01:31:49;;;;;;;13.63;12.33;;;;;;;29.29;63.76;101003.63;5080530;27;64516;-34
2022/12/04 01:34:20;;;;;;;29.13;14.60;;;;;;;29.27;67.24;101011.09;5082556;27;70054;-34
2022/12/04 01:36:52;;;;;;;27.10;14.70;;;;;;;29.18;67.64;100996.94;5083542;27;66457;-33
2022/12/04 01:39:23;;;;;;;19.02;14.85;;;;;;;29.27;67.68;101016.50;5090596;27;68908;-34
2022/12/04 01:41:54;;;;;;;18.10;13.87;;;;;;;29.28;68.29;101026.28;5088434;27;65490;-34
2022/12/04 01:44:26;;;;;;;26.43;15.07;;;;;;;29.21;68.26;101025.44;5088044;27;70691;-35
2022/12/04 01:47:00;;;;;;;27.75;14.10;;;;;;;29.12;68.18;101007.75;5087544;27;65447;-34
2022/12/04 01:49:36;;;;;;;21.13;13.82;;;;;;;28.99;66.61;100981.50;5084211;27;69395;-34
2022/12/04 01:52:26;;;;;;;25.05;12.15;;;;;;;29.07;66.65;101012.94;5089290;27;65433;-34
2022/12/04 01:55:00;;;;;;;19.20;10.93;;;;;;;29.25;66.96;101029.38;5091265;27;70116;-34
2022/12/04 01:57:32;;;;;;;17.05;11.23;;;;;;;28.84;67.28;100968.22;5094658;27;65767;-36
2022/12/04 02:00:05;;;;;;;;;;;;;;;29.06;68.79;101035.56;5090775;27;69559;-33
2022/12/04 02:02:40;;;;;;;20.23;11.57;;;;;;;29.33;67.85;101026.47;5081253;27;66415;-35
2022/12/04 02:05:15;;;;;;;21.73;11.20;;;;;;;29.37;67.92;101021.50;5083885;27;69645;-36
2022/12/04 02:07:49;;;;;;;24.10;11.45;;;;;;;29.39;68.17;101036.47;5087562;27;64268;-36
2022/12/04 02:10:23;;;;;;;18.48;11.35;;;;;;;29.42;68.48;101024.44;5084108;27;69303;-38
2022/12/04 02:13:26;;;;;;;28.27;12.40;;;;;;;29.31;68.80;101012.34;5086298;27;65978;-37
2022/12/04 02:16:17;;;;;;;12.73;9.63;;;;;;;29.35;67.31;101019.00;5078994;27;70637;-35
2022/12/04 02:19:00;;;;;;;12.68;9.60;;;;;;;29.50;65.98;101023.38;5080825;27;66476;-37
2022/12/04 02:21:43;;;;;;;16.05;9.55;;;;;;;29.55;65.73;101023.56;5076251;27;70153;-35
2022/12/04 02:25:05;;;;;;;12.00;8.55;;;;;;;29.44;65.78;101016.09;5083411;27;65616;-34
2022/12/04 02:27:39;;;;;;;13.13;8.55;;;;;;;29.62;64.95;101017.13;5053328;27;70415;-35
2022/12/04 02:30:15;;;;;;;11.30;8.20;;;;;;;29.56;65.58;100992.78;5089082;27;66257;-35
2022/12/04 02:33:12;;;;;;;15.18;8.95;;;;;;;29.69;65.03;101010.91;5080609;27;70401;-35
2022/12/04 02:35:49;;;;;;;8.73;8.05;;;;;;;29.73;65.15;101006.78;5084250;27;66190;-39
2022/12/04 02:38:26;;;;;;;11.70;8.55;;;;;;;29.76;64.87;101006.34;5082083;27;69409;-36
2022/12/04 02:41:13;;;;;;;13.57;8.15;;;;;;;29.70;65.27;100999.91;5076561;27;66306;-36
2022/12/04 02:43:49;;;;;;;8.88;8.10;;;;;;;29.76;64.71;100999.06;5086187;27;70342;-35
2022/12/04 02:46:28;;;;;;;14.98;8.50;;;;;;;29.81;64.33;101004.69;5078695;27;66351;-36
2022/12/04 02:49:02;;;;;;;12.20;7.70;;;;;;;29.29;64.57;100906.34;5083439;27;69116;-35
2022/12/04 02:51:36;;;;;;;9.73;7.60;;;;;;;29.88;64.42;100993.00;5081158;27;65547;-35
2022/12/04 02:54:16;;;;;;;8.95;7.20;;;;;;;29.86;64.14;100981.56;5081383;27;69544;-37
2022/12/04 02:56:51;;;;;;;10.35;6.97;;;;;;;29.40;64.19;100913.00;5083999;27;65369;-36
2022/12/04 02:59:36;;;;;;;7.30;6.60;;;;;;;29.79;63.88;100970.78;5080649;27;70238;-37
2022/12/04 03:02:24;;;;;;;9.07;6.43;;;;;;;29.36;64.33;100901.78;5080296;27;65743;-36
2022/12/04 03:04:59;;;;;;;9.43;6.15;;;;;;;29.97;64.19;100991.75;5062277;27;69055;-35
2022/12/04 03:07:37;;;;;;;6.38;5.78;;;;;;;29.62;63.67;100932.50;5085167;27;65112;-36
2022/12/04 03:10:17;;;;;;;5.93;5.45;;;;;;;30.02;63.79;100986.53;5077078;27;70685;-35
2022/12/04 03:13:02;;;;;;;6.40;5.65;;;;;;;29.78;63.61;100942.91;5079547;27;66437;-34
2022/12/04 03:15:47;;;;;;;6.82;5.80;;;;;;;29.98;63.96;100966.38;5080506;27;70105;-33
2022/12/04 03:18:28;;;;;;;7.32;6.43;;;;;;;29.60;63.90;100886.75;5081695;27;65698;-35
2022/12/04 03:21:08;;;;;;;10.18;5.95;;;;;;;30.03;64.03;100955.72;5076965;27;70044;-35
2022/12/04 03:23:54;;;;;;;7.38;5.72;;;;;;;29.79;64.48;100917.53;5078475;27;65549;-36
2022/12/04 03:26:36;;;;;;;7.78;5.28;;;;;;;30.10;64.23;100956.53;5080898;27;69833;-35
2022/12/04 03:29:16;;;;;;;6.32;5.78;;;;;;;30.11;63.63;100941.97;5082071;27;65709;-35
2022/12/04 03:32:00;;;;;;;8.43;5.70;;;;;;;30.06;63.68;100939.91;5088386;27;70017;-38
2022/12/04 03:34:58;;;;;;;7.57;5.22;;;;;;;30.13;64.13;100953.41;5080273;27;65724;-35
2022/12/04 03:38:02;;;;;;;6.05;5.55;;;;;;;30.10;64.34;100942.19;5074809;27;68669;-42
2022/12/04 03:41:02;;;;;;;5.95;5.45;;;;;;;30.23;64.47;100937.59;5077922;27;66530;-34
2022/12/04 03:43:47;;;;;;;6.07;5.20;;;;;;;30.22;64.29;100935.91;5075375;27;69522;-35
2022/12/04 03:46:30;;;;;;;5.43;4.93;;;;;;;30.26;63.99;100931.75;5076283;27;66207;-35
2022/12/04 03:49:28;;;;;;;5.15;4.65;;;;;;;29.47;63.87;100810.28;5076674;27;70187;-37
2022/12/04 03:52:18;;;;;;;5.30;4.80;;;;;;;29.89;64.04;100851.34;5092596;27;65781;-34
2022/12/04 03:55:10;;;;;;;6.15;5.20;;;;;;;30.31;64.44;100919.44;5077515;27;70726;-36
2022/12/04 03:57:44;;;;;;;4.70;4.28;;;;;;;30.30;63.61;100910.50;5078822;27;65784;-36
2022/12/04 04:00:21;;;;;;;6.65;4.40;;;;;;;29.99;63.97;100849.00;5086633;27;69770;-36
2022/12/04 04:02:59;;;;;;;4.68;4.20;;;;;;;29.52;64.15;100775.34;5078505;27;66299;-35
2022/12/04 04:05:32;;;;;;;5.07;4.47;;;;;;;29.78;63.88;100807.72;5080811;27;70219;-35
2022/12/04 04:08:25;;;;;;;6.40;5.20;;;;;;;30.24;63.99;100876.19;5088172;27;66853;-36
2022/12/04 04:11:04;;;;;;;4.80;4.40;;;;;;;30.43;64.22;100896.06;5076166;27;68901;-35
2022/12/04 04:25:18;;;;;;;5.70;5.15;;;;;;;30.07;63.98;100810.91;5081067;27;65245;-34
2022/12/04 04:27:57;;;;;;;7.38;5.00;;;;;;;30.55;64.55;100885.38;5090494;27;70213;-35
2022/12/04 04:30:32;;;;;;;6.00;4.50;;;;;;;30.00;64.10;100773.06;5081375;27;66982;-34
2022/12/04 04:33:15;;;;;;;6.85;4.78;;;;;;;30.61;64.37;100866.38;5087957;27;70418;-35
2022/12/04 04:35:56;;;;;;;6.10;5.10;;;;;;;30.64;63.69;100860.50;5077959;27;65727;-36
2022/12/04 04:38:55;;;;;;;5.70;4.47;;;;;;;30.61;64.08;100852.84;5086224;27;69665;-35
2022/12/04 04:41:32;;;;;;;6.15;4.40;;;;;;;30.67;63.85;100843.00;5079181;27;65869;-35
2022/12/04 04:44:08;;;;;;;6.10;4.47;;;;;;;29.83;63.46;100707.00;5076621;27;69437;-37
2022/12/04 04:46:47;;;;;;;4.32;3.92;;;;;;;30.71;63.60;100831.53;5084590;27;66755;-36
2022/12/04 04:49:22;;;;;;;4.53;4.10;;;;;;;30.71;63.45;100822.56;5080744;27;69731;-35
2022/12/04 04:51:54;;;;;;;5.28;3.85;;;;;;;30.67;63.30;100819.50;5082128;27;66411;-35
2022/12/04 04:54:28;;;;;;;4.85;3.40;;;;;;;30.70;62.94;100815.47;5081741;27;70041;-34
2022/12/04 04:56:59;;;;;;;4.18;3.38;;;;;;;30.63;63.20;100796.59;5080981;27;66016;-36
2022/12/04 04:59:30;;;;;;;3.97;3.67;;;;;;;30.80;62.96;100809.63;5084973;27;69449;-37
2022/12/04 05:02:02;;;;;;;4.32;3.70;;;;;;;30.82;63.10;100807.53;5077137;27;66089;-35
2022/12/04 05:04:33;;;;;;;4.35;3.90;;;;;;;30.84;62.86;100803.53;5078743;27;70358;-34
2022/12/04 05:07:04;;;;;;;5.27;3.10;;;;;;;30.79;62.78;100802.53;5084212;27;66276;-35
2022/12/04 05:09:36;;;;;;;4.50;3.33;;;;;;;30.84;62.63;100808.09;5086303;27;69945;-36
2022/12/04 05:12:10;;;;;;;3.83;3.15;;;;;;;30.91;62.71;100803.47;5083144;27;66358;-35
2022/12/04 05:14:41;;;;;;;8.55;3.47;;;;;;;30.90;62.98;100799.13;5080736;27;69954;-36
2022/12/04 05:17:13;;;;;;;8.10;3.92;;;;;;;30.84;62.84;100789.16;5086753;27;65892;-37
2022/12/04 05:19:53;;;;;;;4.93;3.33;;;;;;;30.66;63.61;100758.25;5090266;27;69433;-37
2022/12/04 05:22:27;;;;;;;3.10;2.83;;;;;;;30.72;63.62;100770.88;5083059;27;66631;-34
2022/12/04 05:24:59;;;;;;;3.00;2.80;;;;;;;30.66;64.12;100766.38;5085414;27;70260;-36
2022/12/04 05:27:31;;;;;;;4.05;2.95;;;;;;;30.64;64.24;100765.75;5086984;27;66504;-38
2022/12/04 05:30:03;;;;;;;6.28;3.17;;;;;;;30.69;64.41;100774.03;5089303;27;69378;-40
2022/12/04 05:32:35;;;;;;;3.33;2.58;;;;;;;30.60;64.50;100756.44;5072044;27;65702;-37
2022/12/04 05:35:07;;;;;;;4.50;2.80;;;;;;;30.66;64.71;100755.53;5089470;27;69604;-39
2022/12/04 05:37:40;;;;;;;2.83;2.63;;;;;;;30.66;65.02;100760.97;5091714;27;66049;-35
2022/12/04 05:40:12;;;;;;;3.22;2.80;;;;;;;30.61;64.75;100747.25;5081982;27;69758;-39
2022/12/04 05:42:43;;;;;;;;;;;;;;;30.39;66.15;100749.50;5081497;27;66065;-37
2022/12/04 05:45:14;;;;;;;5.18;2.42;;;;;;;30.66;65.54;100743.88;5081894;27;70680;-37
2022/12/04 05:47:46;;;;;;;5.57;1.90;;;;;;;30.35;65.16;100687.94;5094001;27;66565;-35
2022/12/04 05:50:17;;;;;;;5.00;2.20;;;;;;;30.66;65.38;100730.34;5083220;27;68975;-38
2022/12/04 05:52:49;;;;;;;;;;;;;;;30.44;65.64;100729.91;5084140;27;66477;-35
2022/12/04 05:55:20;;;;;;;2.35;2.13;;;;;;;30.69;65.66;100722.59;5082965;27;70312;-35
2022/12/04 05:57:51;;;;;;;2.60;2.40;;;;;;;30.67;65.37;100719.31;5076234;27;65937;-37
2022/12/04 06:00:26;;;;;;;4.95;2.83;;;;;;;30.72;65.41;100716.75;5083154;27;70300;-39
2022/12/04 06:02:57;;;;;;;;;;;;;;;30.49;65.68;100706.53;5080140;27;65969;-39
2022/12/04 06:05:28;;;;;;;2.33;2.03;;;;;;;30.62;64.96;100678.53;5087025;27;69687;-39
2022/12/04 06:07:59;;;;;;;2.87;2.10;;;;;;;30.73;65.47;100696.75;5081571;27;66482;-37
2022/12/04 06:10:31;;;;;;;2.25;2.08;;;;;;;30.30;65.21;100620.13;5080798;27;69481;-38
2022/12/04 06:13:07;;;;;;;3.95;2.47;;;;;;;30.80;65.20;100685.06;5082626;27;66385;-37
2022/12/04 06:15:40;;;;;;;3.05;2.75;;;;;;;30.83;65.52;100687.31;5077580;27;70111;-36
2022/12/04 06:18:12;;;;;;;2.35;2.15;;;;;;;30.85;65.50;100682.50;5085702;27;65833;-39
2022/12/04 06:20:43;;;;;;;2.40;2.17;;;;;;;30.85;65.18;100675.19;5090579;27;70407;-37
2022/12/04 06:23:14;;;;;;;3.35;2.22;;;;;;;30.92;64.85;100666.97;5080485;27;66378;-36
2022/12/04 06:25:46;;;;;;;2.22;2.03;;;;;;;30.89;64.75;100667.44;5077371;27;69947;-37
2022/12/04 06:28:17;;;;;;;2.83;2.00;;;;;;;30.94;64.70;100664.88;5078175;27;66579;-36
2022/12/04 06:30:49;;;;;;;3.45;2.35;;;;;;;30.94;65.33;100659.47;5083110;27;70365;-37
2022/12/04 06:33:20;;;;;;;1.77;1.60;;;;;;;30.86;65.06;100630.81;5087160;27;66353;-38
2022/12/04 06:35:58;;;;;;;2.42;2.22;;;;;;;30.95;64.80;100644.88;5087939;27;70123;-36
2022/12/04 06:38:30;;;;;;;3.90;1.95;;;;;;;31.03;64.90;100647.28;5088670;27;66365;-35
2022/12/04 06:41:10;;;;;;;2.22;2.03;;;;;;;30.61;64.69;100579.41;5080728;27;70453;-35
2022/12/04 06:43:42;;;;;;;2.78;1.73;;;;;;;31.08;64.41;100649.31;5086855;27;66831;-35
2022/12/04 06:46:17;;;;;;;3.45;1.85;;;;;;;31.01;64.59;100638.56;5086979;27;69396;-35
2022/12/04 06:48:49;;;;;;;2.90;2.03;;;;;;;31.08;64.42;100650.13;5080260;27;65952;-35
2022/12/04 06:51:24;;;;;;;4.55;1.85;;;;;;;30.69;64.31;100570.97;5080441;27;70044;-35
2022/12/04 06:53:56;;;;;;;1.73;1.50;;;;;;;31.13;64.06;100623.19;5082902;27;66734;-35
2022/12/04 06:56:31;;;;;;;1.77;1.42;;;;;;;30.79;64.15;100559.63;5077636;27;70556;-37
2022/12/04 06:59:03;;;;;;;6.68;1.80;;;;;;;31.34;64.17;100638.13;5081506;27;66517;-37
2022/12/04 07:01:35;;;;;;;1.95;1.75;;;;;;;31.39;64.13;100629.34;5084218;27;69841;-36
2022/12/04 07:04:07;;;;;;;2.95;2.00;;;;;;;31.45;64.07;100628.41;5080359;27;65562;-34
2022/12/04 07:06:39;;;;;;;3.33;1.60;;;;;;;31.39;64.02;100618.50;5077226;27;69160;-35
2022/12/04 07:09:15;;;;;;;1.75;1.50;;;;;;;31.53;63.75;100619.94;5076995;27;66072;-37
2022/12/04 07:11:47;;;;;;;2.20;1.73;;;;;;;31.49;63.46;100613.34;5089460;27;70204;-34
2022/12/04 07:14:18;;;;;;;4.85;1.88;;;;;;;31.32;63.62;100574.38;5081008;27;64986;-34
2022/12/04 07:16:50;;;;;;;4.93;1.55;;;;;;;31.66;63.62;100623.53;5080298;27;69345;-36
2022/12/04 07:19:22;;;;;;;2.00;1.70;;;;;;;31.73;63.48;100624.25;5075443;27;67168;-35
2022/12/04 07:21:54;;;;;;;1.77;1.38;;;;;;;31.74;63.30;100615.88;5081174;27;70440;-35
2022/12/04 07:24:25;;;;;;;;;;;;;;;31.51;63.80;100630.22;5077459;27;65416;-34
2022/12/04 07:26:56;;;;;;;2.17;1.73;;;;;;;31.74;63.21;100615.88;5076798;27;69344;-35
2022/12/04 07:29:28;;;;;;;3.75;1.58;;;;;;;31.77;63.10;100606.47;5077854;27;66173;-34
2022/12/04 07:32:00;;;;;;;1.98;1.77;;;;;;;31.81;63.09;100602.22;5082458;27;69214;-35
2022/12/04 07:34:31;;;;;;;2.47;1.70;;;;;;;31.56;62.94;100557.13;5081488;27;65559;-35
2022/12/04 07:37:03;;;;;;;2.63;2.00;;;;;;;31.90;62.93;100614.41;5076223;27;70014;-34
2022/12/04 07:39:34;;;;;;;8.70;1.40;;;;;;;31.98;62.68;100611.38;5077340;27;66308;-34
2022/12/04 07:42:06;;;;;;;2.22;1.48;;;;;;;31.70;62.59;100559.63;5081118;27;68804;-36
2022/12/04 07:44:37;;;;;;;2.05;1.48;;;;;;;32.07;62.52;100608.28;5078602;27;66302;-35
2022/12/04 07:47:09;;;;;;;1.67;1.30;;;;;;;32.11;62.17;100604.06;5080981;27;71077;-37
2022/12/04 07:49:40;;;;;;;2.72;1.38;;;;;;;32.11;62.16;100609.47;5083285;27;65150;-37
2022/12/04 07:52:12;;;;;;;1.88;1.77;;;;;;;32.10;61.78;100600.53;5079122;27;70198;-34
2022/12/04 07:54:43;;;;;;;1.52;1.40;;;;;;;32.16;61.84;100607.72;5082573;27;66953;-35
2022/12/04 07:57:15;;;;;;;1.42;1.33;;;;;;;32.11;61.81;100604.88;5084217;27;69068;-34
2022/12/04 07:59:46;;;;;;;6.38;1.60;;;;;;;32.15;61.54;100610.66;5084890;27;66112;-35
2022/12/04 08:02:19;;;;;;;3.58;1.70;;;;;;;32.09;61.78;100595.31;5082579;27;69546;-35
2022/12/04 08:04:50;;;;;;;1.83;1.63;;;;;;;32.23;61.37;100613.00;5082252;27;66330;-36
2022/12/04 08:07:22;;;;;;;1.58;1.27;;;;;;;32.28;61.39;100626.72;5074356;27;70081;-35
2022/12/04 08:09:53;;;;;;;1.75;1.55;;;;;;;32.29;61.23;100622.94;5079254;27;66340;-36
2022/12/04 08:12:25;;;;;;;;;;;;;;;32.03;61.99;100619.59;5079910;27;69393;-35
2022/12/04 08:14:56;;;;;;;2.88;1.65;;;;;;;32.26;61.26;100601.69;5076064;27;67143;-38
2022/12/04 08:17:27;;;;;;;2.78;1.25;;;;;;;32.34;61.11;100617.63;5077910;27;70023;-34
2022/12/04 08:20:00;;;;;;;5.63;1.25;;;;;;;32.24;61.06;100593.78;5076462;27;66752;-36
2022/12/04 08:22:32;;;;;;;1.40;1.25;;;;;;;32.35;61.04;100608.44;5078892;27;70021;-36
2022/12/04 08:25:03;;;;;;;2.13;1.30;;;;;;;32.35;60.79;100605.72;5089187;27;66981;-37
2022/12/04 08:27:35;;;;;;;1.67;1.58;;;;;;;32.33;60.78;100596.97;5089548;27;70237;-36
2022/12/04 08:30:07;;;;;;;5.93;1.52;;;;;;;32.44;60.65;100609.72;5074859;27;66564;-36
2022/12/04 08:32:38;;;;;;;;;;;;;;;32.21;61.10;100610.56;5090049;27;69636;-35
2022/12/04 08:35:10;;;;;;;1.92;1.70;;;;;;;32.43;60.95;100605.34;5073315;27;66160;-37
2022/12/04 08:37:41;;;;;;;2.05;1.63;;;;;;;32.41;60.89;100602.03;5084799;27;70360;-38
2022/12/04 08:40:13;;;;;;;3.25;1.42;;;;;;;32.41;60.67;100583.03;5079771;27;65382;-36
2022/12/04 08:42:44;;;;;;;2.22;1.50;;;;;;;32.52;60.47;100599.59;5080278;27;70122;-37
2022/12/04 08:45:16;;;;;;;2.10;1.48;;;;;;;32.59;60.64;100600.28;5085688;27;66253;-35
2022/12/04 08:47:47;;;;;;;1.65;1.27;;;;;;;32.53;60.34;100587.66;5081050;27;69416;-37
2022/12/04 08:50:21;;;;;;;1.52;1.23;;;;;;;32.63;60.34;100601.47;5074863;27;66618;-34
2022/12/04 08:52:52;;;;;;;1.90;1.38;;;;;;;32.64;60.26;100597.66;5078476;27;69997;-34
2022/12/04 08:55:24;;;;;;;2.85;1.33;;;;;;;32.64;60.28;100597.66;5077052;27;66130;-37
2022/12/04 08:57:55;;;;;;;3.92;1.75;;;;;;;32.66;60.26;100596.38;5076302;27;69560;-36
2022/12/04 09:00:26;;;;;;;2.10;1.33;;;;;;;32.68;59.94;100596.97;5084031;27;66138;-36
2022/12/04 09:02:57;;;;;;;3.33;1.35;;;;;;;32.65;59.98;100586.59;5083281;27;68512;-35
2022/12/04 09:05:29;;;;;;;3.17;1.52;;;;;;;32.71;60.09;100590.22;5077978;27;66029;-35
2022/12/04 09:08:01;;;;;;;2.67;1.40;;;;;;;32.69;60.30;100595.88;5074982;27;70068;-35
2022/12/04 09:10:34;;;;;;;1.45;1.30;;;;;;;32.06;59.71;100493.50;5077640;27;65492;-37
2022/12/04 09:13:06;;;;;;;1.92;1.42;;;;;;;32.74;59.85;100603.31;5080954;27;70215;-35
2022/12/04 09:15:40;;;;;;;5.25;1.63;;;;;;;32.75;59.76;100598.72;5075317;27;66537;-38
2022/12/04 09:18:12;;;;;;;3.10;1.38;;;;;;;32.74;59.86;100603.31;5079975;27;69471;-38
2022/12/04 09:20:43;;;;;;;2.78;1.52;;;;;;;32.74;60.15;100603.31;5080562;27;65432;-35
2022/12/04 09:23:14;;;;;;;4.75;1.60;;;;;;;32.75;59.91;100610.41;5077354;27;69851;-34
2022/12/04 09:25:45;;;;;;;2.10;1.30;;;;;;;32.73;60.01;100609.81;5079628;27;64855;-39
2022/12/04 09:28:17;;;;;;;1.88;1.40;;;;;;;32.73;59.90;100607.09;5079910;27;70206;-35
2022/12/04 09:31:03;;;;;;;3.58;1.73;;;;;;;32.34;59.70;100544.31;5076548;27;65061;-36
2022/12/04 09:33:34;;;;;;;2.72;1.13;;;;;;;32.75;59.86;100609.56;5088845;27;70180;-35
2022/12/04 09:36:05;;;;;;;;;;;;;;;32.55;60.35;100620.84;5086173;27;65648;-37
2022/12/04 09:38:37;;;;;;;2.42;2.17;;;;;;;32.77;59.93;100613.72;5075971;27;69966;-36
2022/12/04 09:41:20;;;;;;;2.10;1.80;;;;;;;32.78;59.81;100618.06;5089900;27;66386;-38
2022/12/04 09:44:15;;;;;;;2.10;1.90;;;;;;;32.72;59.48;100621.75;5077274;27;70709;-37
2022/12/04 09:47:09;;;;;;;2.55;1.80;;;;;;;32.79;59.63;100622.44;5086975;27;66186;-34
2022/12/04 09:49:49;;;;;;;3.33;1.80;;;;;;;32.80;59.51;100626.81;5078356;27;69664;-38
2022/12/04 09:52:30;;;;;;;3.55;1.75;;;;;;;32.81;59.49;100630.34;5087639;27;66364;-37
2022/12/04 09:55:04;;;;;;;1.80;1.70;;;;;;;32.69;59.45;100603.22;5080752;27;70244;-34
2022/12/04 09:57:43;;;;;;;2.78;1.75;;;;;;;32.80;59.34;100634.97;5079493;27;66318;-36
2022/12/04 10:00:18;;;;;;;2.47;1.65;;;;;;;32.75;59.35;100621.25;5082549;27;69473;-36
2022/12/04 10:03:02;;;;;;;2.78;1.77;;;;;;;32.77;59.78;100624.56;5078563;27;66253;-36
2022/12/04 10:05:57;;;;;;;2.28;1.63;;;;;;;32.77;59.66;100635.44;5082518;27;70317;-35
2022/12/04 10:08:34;;;;;;;2.05;1.65;;;;;;;32.41;59.83;100595.78;5083725;27;66334;-35
2022/12/04 10:11:13;;;;;;;2.92;1.90;;;;;;;32.75;59.83;100662.00;5082794;27;69505;-34
2022/12/04 10:14:15;;;;;;;1.90;1.77;;;;;;;32.68;59.76;100669.44;5081975;27;66023;-39
2022/12/04 10:17:14;;;;;;;3.15;1.88;;;;;;;32.59;59.75;100660.00;5081631;27;69896;-36
2022/12/04 10:20:06;;;;;;;1.92;1.70;;;;;;;32.73;59.90;100675.00;5090636;27;66154;-36
2022/12/04 10:23:12;;;;;;;4.70;2.10;;;;;;;32.52;60.01;100657.44;5087988;27;70307;-37
2022/12/04 10:25:43;;;;;;;3.25;2.30;;;;;;;32.44;59.83;100630.59;5083864;27;65732;-35
2022/12/04 10:28:33;;;;;;;4.72;2.80;;;;;;;32.22;60.04;100612.19;5091050;27;69628;-38
2022/12/04 10:31:13;;;;;;;6.97;2.78;;;;;;;32.41;59.84;100634.63;5078344;27;65297;-38
2022/12/04 10:34:04;;;;;;;3.50;2.20;;;;;;;32.47;59.82;100663.56;5088242;27;69772;-36
2022/12/04 10:36:36;;;;;;;4.80;2.60;;;;;;;32.60;60.14;100677.97;5084370;27;65847;-35
2022/12/04 10:39:20;;;;;;;5.13;2.75;;;;;;;32.16;60.34;100623.19;5082689;27;69205;-38
2022/12/04 10:42:05;;;;;;;4.32;2.78;;;;;;;32.64;60.20;100695.44;5057616;27;66139;-36
2022/12/04 10:44:38;;;;;;;5.05;3.60;;;;;;;32.62;60.45;100686.69;5083862;27;69295;-38
2022/12/04 10:47:11;;;;;;;5.63;3.00;;;;;;;32.60;60.67;100688.84;5083082;27;66278;-35
2022/12/04 10:49:43;;;;;;;6.65;3.38;;;;;;;32.35;60.32;100659.19;5077976;27;69443;-37
2022/12/04 10:52:14;;;;;;;3.28;2.90;;;;;;;32.59;60.71;100703.47;5083729;27;66806;-35
2022/12/04 10:54:59;;;;;;;3.90;2.95;;;;;;;32.51;60.35;100695.66;5081456;27;70053;-39
2022/12/04 10:57:39;;;;;;;5.15;2.80;;;;;;;32.31;60.18;100669.66;5086268;27;66104;-35
2022/12/04 11:00:33;;;;;;;5.13;3.20;;;;;;;32.46;60.71;100697.22;5084001;27;69514;-35
2022/12/04 11:03:21;;;;;;;5.88;3.30;;;;;;;32.53;60.56;100697.09;5078395;27;66444;-35
2022/12/04 11:06:13;;;;;;;3.55;2.95;;;;;;;32.04;60.38;100625.88;5077819;27;69964;-35
2022/12/04 11:08:50;;;;;;;4.20;3.80;;;;;;;32.44;60.40;100695.75;5082806;27;65661;-38
2022/12/04 11:11:48;;;;;;;5.55;3.97;;;;;;;32.38;60.79;100721.97;5076169;27;69565;-38
2022/12/04 11:14:22;;;;;;;3.60;3.30;;;;;;;31.96;60.46;100634.38;5089083;27;64620;-36
2022/12/04 11:17:03;;;;;;;10.68;3.70;;;;;;;32.44;60.60;100723.72;5089340;27;70121;-35
2022/12/04 11:19:35;;;;;;;4.45;3.67;;;;;;;32.36;60.52;100710.50;5076217;27;66086;-37
2022/12/04 11:22:15;;;;;;;8.23;4.53;;;;;;;32.41;60.55;100720.66;5078674;27;70248;-34
2022/12/04 11:24:57;;;;;;;4.22;3.70;;;;;;;31.98;60.63;100662.91;5069970;28;65772;-35
2022/12/04 11:27:33;;;;;;;4.68;4.28;;;;;;;31.89;60.36;100653.41;5085420;27;70050;-34
2022/12/04 11:30:14;;;;;;;6.05;3.95;;;;;;;32.29;60.66;100731.53;5086375;27;66189;-36
2022/12/04 11:32:46;;;;;;;3.88;3.58;;;;;;;32.35;60.70;100736.00;5084870;27;68897;-36
2022/12/04 11:35:24;;;;;;;4.18;3.67;;;;;;;31.48;60.56;100605.44;5088394;27;66033;-34
2022/12/04 11:38:13;;;;;;;5.30;3.70;;;;;;;32.34;60.47;100750.63;5086928;27;70145;-37
2022/12/04 11:40:54;;;;;;;4.10;3.80;;;;;;;32.30;60.41;100754.88;5087301;27;65465;-36
2022/12/04 11:43:31;;;;;;;7.67;3.90;;;;;;;31.78;60.43;100675.91;5079917;27;69581;-35
2022/12/04 11:46:05;;;;;;;4.63;3.80;;;;;;;31.80;60.56;100674.63;5087915;27;65285;-35
2022/12/04 11:48:45;;;;;;;6.75;3.80;;;;;;;32.25;60.79;100771.03;5081674;27;70151;-35
2022/12/04 11:51:33;;;;;;;5.97;4.32;;;;;;;32.18;61.09;100764.84;5085164;27;66288;-36
2022/12/04 11:54:29;;;;;;;4.15;3.75;;;;;;;32.17;61.26;100782.22;5079643;27;69876;-37
2022/12/04 11:57:28;;;;;;;6.25;3.92;;;;;;;32.17;61.02;100771.34;5077533;27;66428;-35
2022/12/04 12:00:14;;;;;;;4.70;3.85;;;;;;;32.20;61.04;100771.72;5088505;27;70949;-35
2022/12/04 12:03:15;;;;;;;4.10;3.75;;;;;;;32.10;61.21;100781.50;5082097;27;66362;-36
2022/12/04 12:05:52;;;;;;;3.78;3.47;;;;;;;32.18;60.97;100789.28;5087580;27;69609;-37
2022/12/04 12:08:48;;;;;;;4.50;3.92;;;;;;;32.07;61.32;100787.38;5078205;27;65478;-35
2022/12/04 12:11:33;;;;;;;8.25;4.10;;;;;;;32.15;61.06;100789.75;5075791;27;69614;-37
2022/12/04 12:14:51;;;;;;;6.45;3.72;;;;;;;31.99;61.61;100797.50;5082676;27;66385;-35
2022/12/04 12:17:36;;;;;;;5.03;3.80;;;;;;;31.68;61.38;100735.28;5075018;27;69712;-36
2022/12/04 12:20:13;;;;;;;7.28;3.28;;;;;;;32.10;61.20;100804.03;5075414;27;65354;-36